Terminal Aerodrome Forecast
Issued by NWS

Home | Current Version | Previous Version | Graphics & Text | Print | Product List | Glossary On
Versions: 1 2 3 4 5 6 7 8 9 10 11 12 13 14 15 16 17 18 19 20 21 22 23 24 25 26 27 28 29 30 31 32 33 34
250
FTUS43 KLOT 291120
TAFMDW
TAF
KMDW 291120Z 2912/3012 03015G25KT P6SM -SHRA SCT020 BKN035
      TEMPO 2912/2915 BKN020
     FM291500 03018G28KT P6SM VCSH BKN020
      TEMPO 2921/3001 6SM SHRA BKN015
     FM300100 03012G18KT P6SM VCSH BKN010
     FM300600 02012G18KT P6SM VCSH BKN008=

USA.gov is the U.S. government's official web portal to all federal, state and local government web resources and services.